Time;durP1;ratioP1;P1;durP2;ratioP2;P2;SDS_P1;SDS_P2;PMS_P1;PMS_P2;Temp;Humidity;BMP_temperature;BMP_pressure;BME280_temperature;BME280_humidity;BME280_pressure;Samples;Min_cycle;Max_cycle;Signal;HPM_P1;HPM_P2
2023/12/20 00:01:12;;;;;;;1.90;1.80;;;8.50;54.00;;;;;;20564;6844;278148;-79
2023/12/20 00:03:38;;;;;;;1.63;1.53;;;8.70;53.70;;;;;;20783;6844;117731;-80
2023/12/20 00:06:03;;;;;;;1.87;1.77;;;8.60;53.80;;;;;;20766;6835;144474;-80
2023/12/20 00:08:29;;;;;;;1.20;1.20;;;8.30;54.20;;;;;;20809;6834;117348;-80
2023/12/20 00:10:54;;;;;;;1.98;1.87;;;8.10;54.70;;;;;;20807;6835;117183;-79
2023/12/20 00:13:20;;;;;;;1.55;1.45;;;7.90;55.10;;;;;;20810;6835;117020;-79
2023/12/20 00:15:46;;;;;;;1.45;1.35;;;7.70;55.80;;;;;;20793;6835;117920;-80
2023/12/20 00:18:12;;;;;;;1.87;1.27;;;7.70;55.80;;;;;;20746;6841;117296;-80
2023/12/20 00:20:37;;;;;;;1.40;1.37;;;7.60;56.10;;;;;;20765;6848;117376;-80
2023/12/20 00:23:03;;;;;;;1.30;1.30;;;7.50;56.30;;;;;;20772;6844;117785;-79
2023/12/20 00:25:29;;;;;;;1.50;1.40;;;7.50;56.60;;;;;;20568;6844;308990;-79
2023/12/20 00:27:55;;;;;;;1.37;1.37;;;8.10;55.80;;;;;;20549;6844;304691;-79
2023/12/20 00:30:23;;;;;;;1.60;1.50;;;8.40;55.10;;;;;;20564;6844;308138;-79
2023/12/20 00:32:49;;;;;;;1.50;1.40;;;8.70;54.50;;;;;;20568;6844;308526;-79
2023/12/20 00:35:18;;;;;;;1.37;1.27;;;8.70;54.40;;;;;;20781;6844;117743;-79
2023/12/20 00:37:45;;;;;;;1.33;1.33;;;8.60;54.40;;;;;;20564;6844;309406;-80
2023/12/20 00:40:11;;;;;;;1.10;1.10;;;8.70;54.40;;;;;;20529;6844;338839;-80
2023/12/20 00:42:37;;;;;;;1.00;1.00;;;8.90;54.00;;;;;;20782;6844;117111;-79
2023/12/20 00:45:04;;;;;;;1.10;1.10;;;8.80;54.10;;;;;;20560;6844;339467;-79
2023/12/20 00:47:28;;;;;;;0.93;0.93;;;8.80;54.00;;;;;;20558;6844;308137;-79
2023/12/20 00:49:54;;;;;;;1.00;1.00;;;9.00;53.70;;;;;;20549;6844;277925;-79
2023/12/20 00:52:19;;;;;;;1.07;0.90;;;9.20;53.30;;;;;;20568;6844;308068;-79
2023/12/20 00:54:45;;;;;;;0.90;0.90;;;9.30;52.80;;;;;;20575;6844;279600;-79
2023/12/20 00:57:11;;;;;;;0.70;0.70;;;9.50;52.50;;;;;;20780;6844;117596;-81
2023/12/20 00:59:37;;;;;;;0.93;0.93;;;9.30;52.80;;;;;;20561;6844;278359;-80
2023/12/20 01:02:03;;;;;;;0.83;0.83;;;9.30;53.60;;;;;;20575;6844;310577;-80
2023/12/20 01:04:29;;;;;;;0.70;0.70;;;9.20;52.90;;;;;;20784;6844;117307;-79
2023/12/20 01:06:54;;;;;;;0.90;0.90;;;9.20;52.90;;;;;;20589;6844;308991;-80
2023/12/20 01:09:23;;;;;;;0.70;0.70;;;9.20;53.10;;;;;;20566;6844;308622;-79
2023/12/20 01:11:46;;;;;;;0.73;0.73;;;9.20;53.20;;;;;;20771;6844;117753;-79
2023/12/20 01:14:14;;;;;;;0.68;0.68;;;9.20;53.80;;;;;;20550;6844;307527;-80
2023/12/20 01:16:40;;;;;;;0.67;0.67;;;9.10;53.70;;;;;;20784;6844;120063;-80
2023/12/20 01:19:06;;;;;;;0.60;0.60;;;9.10;53.70;;;;;;20775;6844;118369;-80
2023/12/20 01:21:33;;;;;;;1.00;1.00;;;8.80;54.10;;;;;;20566;6843;308048;-80
2023/12/20 01:23:58;;;;;;;0.90;0.90;;;8.80;54.40;;;;;;20764;6844;118080;-80
2023/12/20 01:26:25;;;;;;;1.20;1.00;;;8.50;55.00;;;;;;20762;6844;117855;-80
2023/12/20 01:28:50;;;;;;;1.10;1.00;;;8.50;54.90;;;;;;20550;6844;337713;-80
2023/12/20 01:31:16;;;;;;;1.40;1.30;;;8.60;55.60;;;;;;20566;6844;324016;-80
2023/12/20 01:33:42;;;;;;;1.30;1.20;;;8.80;55.80;;;;;;20784;6844;117051;-81
2023/12/20 01:36:08;;;;;;;1.43;1.33;;;8.80;55.80;;;;;;20549;6844;280218;-80
2023/12/20 01:38:35;;;;;;;1.40;1.30;;;8.80;56.30;;;;;;20564;6844;308931;-80
2023/12/20 01:41:01;;;;;;;0.87;0.87;;;8.90;56.60;;;;;;20746;6844;117785;-79
2023/12/20 01:43:27;;;;;;;0.90;0.90;;;8.80;56.40;;;;;;20780;6844;118388;-79
2023/12/20 01:45:52;;;;;;;1.07;1.07;;;8.50;56.90;;;;;;20544;6844;307258;-79
2023/12/20 01:48:17;;;;;;;1.03;1.00;;;8.50;58.00;;;;;;20569;6844;278534;-79
2023/12/20 01:50:43;;;;;;;1.10;1.10;;;8.70;58.50;;;;;;20754;6844;117150;-79
2023/12/20 01:53:09;;;;;;;0.70;0.70;;;8.60;58.20;;;;;;20776;6844;118285;-79
2023/12/20 01:55:34;;;;;;;2.20;1.23;;;8.30;58.50;;;;;;20560;6844;304123;-79
2023/12/20 01:58:00;;;;;;;0.80;0.80;;;8.40;59.50;;;;;;20753;6844;118145;-79
2023/12/20 02:00:26;;;;;;;1.20;1.20;;;8.30;59.30;;;;;;20542;6844;307563;-79
2023/12/20 02:02:51;;;;;;;1.30;1.30;;;8.30;60.00;;;;;;20774;6844;116939;-79
2023/12/20 02:05:17;;;;;;;1.45;1.25;;;8.30;59.90;;;;;;20764;6844;117503;-79
2023/12/20 02:07:43;;;;;;;1.23;1.23;;;8.00;60.00;;;;;;20774;6844;116956;-80
2023/12/20 02:10:09;;;;;;;1.97;1.87;;;7.90;60.50;;;;;;20527;6844;405251;-80
2023/12/20 02:12:35;;;;;;;2.10;2.00;;;7.90;61.10;;;;;;20560;6844;308363;-80
2023/12/20 02:15:00;;;;;;;2.43;2.23;;;8.20;61.10;;;;;;20548;6844;279347;-80
2023/12/20 02:17:25;;;;;;;1.83;1.73;;;8.40;60.70;;;;;;20776;6844;118741;-80
2023/12/20 02:19:51;;;;;;;2.07;1.80;;;8.30;60.40;;;;;;20756;6844;117384;-80
2023/12/20 02:22:17;;;;;;;2.83;1.70;;;7.90;61.30;;;;;;20781;6844;117331;-80
2023/12/20 02:24:43;;;;;;;1.40;1.37;;;7.80;61.20;;;;;;20781;6844;117533;-80
2023/12/20 02:27:08;;;;;;;2.00;1.90;;;7.60;61.70;;;;;;20565;6844;279365;-80
2023/12/20 02:29:35;;;;;;;1.85;1.52;;;7.80;62.20;;;;;;20772;6844;117704;-79
2023/12/20 02:32:00;;;;;;;1.70;1.60;;;7.80;62.20;;;;;;20760;6843;117635;-79
2023/12/20 02:34:28;;;;;;;1.57;1.47;;;7.60;62.40;;;;;;20759;6844;117262;-79
2023/12/20 02:36:57;;;;;;;1.50;1.40;;;7.50;62.80;;;;;;20783;6844;116940;-82
2023/12/20 02:39:22;;;;;;;1.40;1.30;;;7.40;63.10;;;;;;20779;6844;116973;-79
2023/12/20 02:41:48;;;;;;;1.77;1.50;;;7.30;63.40;;;;;;20780;6844;117205;-79
2023/12/20 02:44:15;;;;;;;1.27;1.27;;;7.20;63.70;;;;;;20762;6844;117644;-79
2023/12/20 02:46:42;;;;;;;1.40;1.30;;;7.10;63.90;;;;;;20780;6844;117384;-79
2023/12/20 02:49:07;;;;;;;1.30;1.20;;;7.10;64.10;;;;;;20776;6844;117450;-79
2023/12/20 02:51:33;;;;;;;1.00;1.00;;;7.10;64.40;;;;;;20777;6844;120146;-79
2023/12/20 02:53:58;;;;;;;1.70;1.60;;;7.00;64.60;;;;;;20535;6844;308953;-80
2023/12/20 02:56:24;;;;;;;1.60;1.50;;;7.20;65.20;;;;;;20567;6844;299624;-79
2023/12/20 02:58:51;;;;;;;1.60;1.50;;;7.60;65.00;;;;;;20566;6844;311118;-80
2023/12/20 03:01:16;;;;;;;1.20;1.10;;;8.00;64.40;;;;;;20776;6844;117002;-79
2023/12/20 03:03:43;;;;;;;1.33;1.33;;;8.00;63.80;;;;;;20572;6844;285745;-79
2023/12/20 03:06:09;;;;;;;1.27;1.27;;;8.10;64.10;;;;;;20533;6844;337616;-79
2023/12/20 03:08:34;;;;;;;1.17;1.17;;;8.30;63.70;;;;;;20552;6844;279906;-80
2023/12/20 03:11:02;;;;;;;1.27;1.15;;;8.40;62.90;;;;;;20776;6844;117796;-79
2023/12/20 03:13:27;;;;;;;0.90;0.90;;;8.40;62.90;;;;;;20784;6844;117425;-79
2023/12/20 03:15:53;;;;;;;1.07;1.07;;;8.20;63.40;;;;;;20570;6844;291638;-79
2023/12/20 03:18:18;;;;;;;1.20;1.10;;;8.20;64.00;;;;;;20780;6844;117818;-80
2023/12/20 03:20:47;;;;;;;1.00;1.00;;;8.00;64.20;;;;;;20777;6844;117634;-79
2023/12/20 03:23:11;;;;;;;1.27;1.17;;;8.00;64.60;;;;;;20576;6844;337589;-79
2023/12/20 03:25:37;;;;;;;0.90;0.90;;;8.00;64.60;;;;;;20787;6841;117782;-79
2023/12/20 03:28:02;;;;;;;1.10;1.10;;;8.00;64.20;;;;;;20562;6839;279334;-79
2023/12/20 03:30:29;;;;;;;0.80;0.80;;;8.10;64.00;;;;;;20746;6854;117640;-79
2023/12/20 03:32:54;;;;;;;1.27;1.20;;;8.10;64.30;;;;;;20521;6862;279833;-79
2023/12/20 03:35:20;;;;;;;0.77;0.77;;;8.20;64.50;;;;;;20774;6847;117429;-78
2023/12/20 03:37:45;;;;;;;1.30;1.30;;;8.10;64.20;;;;;;20555;6847;307592;-78
2023/12/20 03:40:11;;;;;;;1.00;1.00;;;8.20;64.30;;;;;;20743;6847;117326;-78
2023/12/20 03:42:37;;;;;;;1.20;1.20;;;8.20;64.20;;;;;;20548;6845;279941;-79
2023/12/20 03:45:03;;;;;;;1.40;1.30;;;8.40;64.00;;;;;;20560;6847;307685;-79
2023/12/20 03:47:31;;;;;;;1.40;1.30;;;8.40;63.70;;;;;;20770;6847;117914;-79
2023/12/20 03:49:56;;;;;;;1.17;1.17;;;8.40;63.70;;;;;;20537;6847;310645;-78
2023/12/20 03:52:23;;;;;;;1.10;1.00;;;8.40;64.00;;;;;;20767;6847;117361;-78
2023/12/20 03:54:50;;;;;;;1.43;1.40;;;8.30;63.90;;;;;;20562;6847;308131;-79
2023/12/20 03:57:19;;;;;;;1.30;1.20;;;8.30;64.00;;;;;;20769;6847;117655;-79
2023/12/20 03:59:44;;;;;;;1.00;1.00;;;8.20;63.90;;;;;;20765;6847;117203;-79
2023/12/20 04:02:11;;;;;;;2.40;1.90;;;8.10;64.80;;;;;;20543;6847;279067;-78
2023/12/20 04:04:36;;;;;;;1.33;1.33;;;8.10;64.80;;;;;;20559;6847;308346;-78
2023/12/20 04:07:02;;;;;;;2.40;1.60;;;8.30;64.30;;;;;;20556;6847;278935;-79
2023/12/20 04:09:27;;;;;;;1.17;1.13;;;8.50;63.70;;;;;;20700;6862;117826;-78
2023/12/20 04:11:53;;;;;;;1.30;1.30;;;8.40;63.40;;;;;;20694;6864;128005;-79
2023/12/20 04:14:20;;;;;;;1.85;1.60;;;8.10;63.90;;;;;;20520;6855;287885;-79
2023/12/20 04:16:46;;;;;;;1.67;1.60;;;8.10;64.40;;;;;;20506;6855;309427;-79
2023/12/20 04:19:12;;;;;;;1.67;1.13;;;8.40;64.00;;;;;;20699;6871;118892;-80
2023/12/20 04:21:39;;;;;;;1.50;1.40;;;8.30;63.70;;;;;;20487;6869;308946;-80
2023/12/20 04:24:05;;;;;;;1.50;1.40;;;8.30;64.10;;;;;;20694;6866;117328;-79
2023/12/20 04:26:30;;;;;;;1.50;1.50;;;8.20;63.80;;;;;;20505;6866;278917;-79
2023/12/20 04:28:56;;;;;;;1.60;1.50;;;8.20;64.00;;;;;;20708;6866;117525;-79
2023/12/20 04:31:24;;;;;;;1.10;1.10;;;8.20;64.20;;;;;;20501;6866;305780;-80
2023/12/20 04:33:49;;;;;;;1.20;1.20;;;8.20;64.30;;;;;;20500;6866;308177;-80
2023/12/20 04:36:15;;;;;;;1.50;1.40;;;8.30;63.50;;;;;;20697;6866;117504;-80
2023/12/20 04:38:41;;;;;;;0.60;0.60;;;8.30;63.50;;;;;;20716;6866;117197;-80
2023/12/20 04:41:07;;;;;;;0.90;0.90;;;8.00;63.80;;;;;;20511;6863;277781;-80
2023/12/20 04:43:33;;;;;;;1.70;0.57;;;7.90;64.00;;;;;;20676;6879;117562;-79
2023/12/20 04:45:58;;;;;;;0.90;0.90;;;7.90;64.00;;;;;;20460;6863;308547;-79
2023/12/20 04:48:24;;;;;;;0.87;0.87;;;8.00;64.30;;;;;;20765;6849;117547;-78
2023/12/20 04:50:50;;;;;;;0.80;0.80;;;7.70;64.50;;;;;;20766;6849;117228;-78
2023/12/20 04:53:16;;;;;;;1.10;1.00;;;7.70;64.50;;;;;;20562;6849;308138;-80
2023/12/20 04:55:41;;;;;;;1.43;1.07;;;7.80;64.80;;;;;;20558;6847;309092;-80
2023/12/20 04:58:07;;;;;;;2.13;0.80;;;8.10;64.30;;;;;;20750;6848;118105;-80
2023/12/20 05:00:33;;;;;;;0.70;0.70;;;7.80;64.30;;;;;;20765;6848;117292;-79
2023/12/20 05:02:59;;;;;;;0.73;0.50;;;7.80;64.30;;;;;;20772;6849;117408;-79
2023/12/20 05:05:24;;;;;;;0.97;0.70;;;7.60;64.90;;;;;;20552;6849;279797;-79
2023/12/20 05:07:50;;;;;;;0.40;0.40;;;7.70;65.10;;;;;;20752;6849;117481;-79
2023/12/20 05:10:16;;;;;;;0.43;0.43;;;7.70;64.80;;;;;;20555;6849;278169;-79
2023/12/20 05:12:41;;;;;;;1.80;0.53;;;7.80;64.80;;;;;;20771;6849;117089;-79
2023/12/20 05:15:07;;;;;;;0.47;0.40;;;7.80;64.60;;;;;;20769;6849;117567;-80
2023/12/20 05:17:34;;;;;;;0.60;0.60;;;7.70;65.10;;;;;;20556;6849;278002;-77
2023/12/20 05:20:00;;;;;;;0.50;0.50;;;8.00;64.30;;;;;;20530;6849;308684;-78
2023/12/20 05:22:27;;;;;;;1.90;0.70;;;8.00;64.30;;;;;;20765;6849;117962;-78
2023/12/20 05:24:51;;;;;;;0.55;0.43;;;8.00;63.90;;;;;;20549;6849;336914;-78
2023/12/20 05:27:17;;;;;;;0.73;0.60;;;8.10;63.90;;;;;;20557;6849;308306;-78
2023/12/20 05:29:44;;;;;;;1.00;0.53;;;8.30;63.40;;;;;;20552;6849;308915;-78
2023/12/20 05:32:09;;;;;;;0.50;0.30;;;8.40;62.70;;;;;;20528;6849;432363;-78
2023/12/20 05:34:35;;;;;;;0.50;0.50;;;8.60;62.20;;;;;;20764;6849;117432;-79
2023/12/20 05:37:01;;;;;;;0.30;0.30;;;8.50;62.10;;;;;;20557;6849;279731;-79
2023/12/20 05:39:27;;;;;;;0.30;0.30;;;8.20;62.30;;;;;;20762;6849;117788;-79
2023/12/20 05:41:52;;;;;;;0.40;0.40;;;8.20;62.30;;;;;;20744;6849;120269;-79
2023/12/20 05:44:18;;;;;;;0.40;0.40;;;8.00;62.90;;;;;;20557;6849;308113;-83
2023/12/20 05:46:44;;;;;;;0.30;0.30;;;8.00;63.20;;;;;;20769;6849;118407;-80
2023/12/20 05:49:10;;;;;;;0.30;0.30;;;7.90;63.10;;;;;;20554;6849;296024;-78
2023/12/20 05:51:35;;;;;;;1.55;0.50;;;8.00;63.30;;;;;;20762;6849;117135;-79
2023/12/20 05:54:01;;;;;;;2.50;0.55;;;7.70;63.50;;;;;;20738;6849;121237;-80
2023/12/20 05:56:28;;;;;;;0.40;0.40;;;7.70;63.50;;;;;;20768;6849;118112;-79
2023/12/20 05:58:53;;;;;;;0.50;0.50;;;7.50;64.00;;;;;;20767;6849;117478;-80
2023/12/20 06:01:19;;;;;;;0.50;0.50;;;7.40;64.60;;;;;;20762;6849;120163;-82
2023/12/20 06:03:46;;;;;;;0.30;0.30;;;7.20;64.80;;;;;;20761;6849;120774;-81
2023/12/20 06:06:12;;;;;;;0.50;0.50;;;7.10;65.30;;;;;;20534;6847;279262;-79
2023/12/20 06:08:37;;;;;;;0.63;0.40;;;7.30;65.60;;;;;;20545;6848;308434;-79
2023/12/20 06:11:02;;;;;;;0.30;0.30;;;7.60;64.80;;;;;;20756;6848;117327;-78
2023/12/20 06:13:28;;;;;;;1.00;0.47;;;7.70;64.20;;;;;;20556;6849;278136;-81
2023/12/20 06:15:55;;;;;;;0.60;0.50;;;7.80;64.20;;;;;;20529;6849;308355;-80
2023/12/20 06:18:21;;;;;;;3.50;0.50;;;8.00;63.50;;;;;;20760;6849;117685;-78
2023/12/20 06:20:46;;;;;;;0.43;0.43;;;7.90;63.10;;;;;;20550;6849;280268;-78
2023/12/20 06:23:12;;;;;;;2.15;0.60;;;8.20;63.60;;;;;;20558;6849;310521;-77
2023/12/20 06:25:38;;;;;;;0.40;0.40;;;8.20;62.80;;;;;;20770;6849;117051;-77
2023/12/20 06:28:04;;;;;;;0.50;0.50;;;8.10;62.60;;;;;;20744;6849;117545;-77
2023/12/20 06:30:29;;;;;;;0.40;0.40;;;7.80;63.20;;;;;;20750;6849;117209;-77
2023/12/20 06:32:57;;;;;;;1.40;0.50;;;7.60;63.80;;;;;;20557;6849;279473;-78
2023/12/20 06:35:24;;;;;;;0.80;0.80;;;7.70;64.30;;;;;;20549;6849;307970;-77
2023/12/20 06:37:50;;;;;;;1.43;0.80;;;8.20;63.00;;;;;;20554;6849;280073;-77
2023/12/20 06:40:16;;;;;;;0.67;0.67;;;8.20;63.00;;;;;;20589;6849;117715;-78
2023/12/20 06:42:42;;;;;;;0.80;0.40;;;7.90;63.30;;;;;;20765;6849;118079;-77
2023/12/20 06:45:08;;;;;;;2.00;0.80;;;7.80;63.20;;;;;;20549;6849;338029;-77
2023/12/20 06:47:33;;;;;;;1.10;0.80;;;7.90;63.70;;;;;;20552;6849;277891;-78
2023/12/20 06:49:59;;;;;;;2.00;1.10;;;8.10;63.30;;;;;;20528;6849;308079;-78
2023/12/20 06:52:25;;;;;;;1.67;0.80;;;8.40;62.80;;;;;;20679;6849;117661;-78
2023/12/20 06:54:51;;;;;;;2.60;1.40;;;8.00;63.10;;;;;;20526;6849;117416;-78
2023/12/20 06:57:16;;;;;;;1.27;0.63;;;8.00;63.10;;;;;;20765;6849;117813;-78
2023/12/20 06:59:42;;;;;;;1.58;0.50;;;7.80;63.70;;;;;;20762;6849;116981;-76
2023/12/20 07:02:10;;;;;;;0.70;0.50;;;7.50;64.90;;;;;;20727;6849;116962;-78
2023/12/20 07:04:39;;;;;;;1.10;0.70;;;7.50;64.90;;;;;;20556;6849;294538;-79
2023/12/20 07:07:04;;;;;;;1.53;0.80;;;7.60;65.00;;;;;;20761;6849;117489;-79
2023/12/20 07:09:30;;;;;;;0.63;0.63;;;7.60;64.70;;;;;;20766;6849;117277;-79
2023/12/20 07:11:55;;;;;;;1.50;0.70;;;7.50;64.90;;;;;;20530;6849;307531;-79
2023/12/20 07:14:21;;;;;;;0.73;0.73;;;7.60;65.00;;;;;;20764;6849;117552;-79
2023/12/20 07:16:47;;;;;;;0.60;0.60;;;7.70;64.80;;;;;;20765;6849;117136;-79
2023/12/20 07:19:12;;;;;;;1.55;0.70;;;7.50;65.10;;;;;;20762;6847;117493;-79
2023/12/20 07:21:38;;;;;;;0.90;0.90;;;7.40;65.60;;;;;;20553;6848;307814;-79
2023/12/20 07:24:05;;;;;;;2.17;0.80;;;7.60;65.80;;;;;;20537;6849;279399;-79
2023/12/20 07:26:30;;;;;;;2.53;1.00;;;7.90;64.90;;;;;;20562;6849;279124;-79
2023/12/20 07:28:56;;;;;;;1.10;0.90;;;8.20;64.00;;;;;;20552;6849;278966;-79
2023/12/20 07:31:21;;;;;;;0.70;0.60;;;8.40;63.10;;;;;;20764;6849;117126;-79
2023/12/20 07:33:47;;;;;;;2.80;0.67;;;8.30;63.00;;;;;;20555;6849;308324;-79
2023/12/20 07:36:12;;;;;;;0.77;0.77;;;8.30;63.20;;;;;;20748;6849;117256;-79
2023/12/20 07:38:38;;;;;;;1.73;0.87;;;8.20;63.20;;;;;;20556;6849;278193;-79
2023/12/20 07:41:04;;;;;;;1.77;1.67;;;8.20;63.40;;;;;;20763;6849;117314;-79
2023/12/20 07:43:31;;;;;;;1.70;0.93;;;8.10;63.40;;;;;;20557;6849;279402;-80
2023/12/20 07:45:58;;;;;;;1.45;1.00;;;8.40;63.00;;;;;;20542;6849;278644;-79
2023/12/20 07:48:24;;;;;;;0.63;0.63;;;8.40;63.00;;;;;;20767;6849;117808;-79
2023/12/20 07:50:50;;;;;;;1.83;0.97;;;8.30;62.80;;;;;;20768;6849;119965;-79
2023/12/20 07:53:15;;;;;;;2.43;1.10;;;8.10;63.40;;;;;;20540;6849;307556;-79
2023/12/20 07:55:41;;;;;;;2.53;0.93;;;8.10;63.80;;;;;;20769;6849;117441;-79
2023/12/20 07:58:06;;;;;;;2.10;1.10;;;8.10;63.70;;;;;;20533;6849;277937;-79
2023/12/20 08:00:32;;;;;;;1.50;1.40;;;8.10;63.80;;;;;;20558;6849;278599;-78
2023/12/20 08:02:57;;;;;;;1.60;1.10;;;8.40;63.40;;;;;;20558;6849;278982;-79
2023/12/20 08:05:23;;;;;;;2.60;1.05;;;8.60;62.80;;;;;;20769;6849;119701;-79
2023/12/20 08:07:49;;;;;;;1.17;1.13;;;8.50;62.70;;;;;;20770;6849;117578;-76
2023/12/20 08:10:14;;;;;;;0.90;0.90;;;8.20;63.10;;;;;;20749;6849;117489;-76
2023/12/20 08:12:40;;;;;;;1.55;0.93;;;8.00;63.70;;;;;;20768;6849;117778;-76
2023/12/20 08:15:06;;;;;;;0.90;0.90;;;7.80;64.30;;;;;;20557;6849;279969;-76
2023/12/20 08:17:31;;;;;;;1.50;0.90;;;7.90;64.70;;;;;;20550;6849;307464;-75
2023/12/20 08:19:59;;;;;;;0.62;0.62;;;8.20;63.80;;;;;;20735;6849;117827;-76
2023/12/20 08:22:23;;;;;;;1.03;0.60;;;8.20;63.80;;;;;;20764;6849;119999;-76
2023/12/20 08:24:49;;;;;;;0.80;0.80;;;8.00;64.20;;;;;;20550;6849;306538;-76
2023/12/20 08:27:14;;;;;;;0.83;0.83;;;8.10;64.40;;;;;;20766;6849;117364;-78
2023/12/20 08:29:40;;;;;;;1.10;0.80;;;8.10;64.20;;;;;;20554;6847;277782;-78
2023/12/20 08:32:05;;;;;;;0.90;0.90;;;8.20;64.20;;;;;;20534;6848;308379;-77
2023/12/20 08:34:31;;;;;;;1.00;0.80;;;8.50;63.60;;;;;;20556;6848;309432;-77
2023/12/20 08:36:57;;;;;;;0.67;0.67;;;8.70;62.80;;;;;;20561;6849;306366;-77
2023/12/20 08:39:22;;;;;;;0.60;0.60;;;8.90;62.10;;;;;;20563;6849;310437;-77
2023/12/20 09:15:20;;;;;;;0.90;0.90;;;9.80;58.80;;;;;;21401;6475;66921;-73
2023/12/20 09:17:46;;;;;;;1.60;1.00;;;9.50;58.90;;;;;;20852;6754;274364;-73
2023/12/20 09:20:13;;;;;;;1.20;1.20;;;9.30;59.30;;;;;;20710;6762;278391;-73
2023/12/20 09:22:39;;;;;;;1.98;1.40;;;9.40;59.40;;;;;;20787;6841;116887;-73
2023/12/20 09:25:03;;;;;;;2.30;1.42;;;8.70;60.30;;;;;;20811;6834;117036;-72
2023/12/20 09:27:30;;;;;;;1.53;1.37;;;8.80;60.30;;;;;;20579;6842;278193;-73
2023/12/20 09:29:56;;;;;;;2.93;1.10;;;8.70;60.10;;;;;;20748;6838;117624;-73
2023/12/20 09:32:21;;;;;;;1.40;1.30;;;8.60;60.10;;;;;;20621;6827;308024;-73
2023/12/20 09:34:47;;;;;;;2.25;1.50;;;8.60;59.70;;;;;;20619;6827;307533;-73
2023/12/20 09:37:13;;;;;;;2.12;1.60;;;8.70;58.40;;;;;;20625;6827;308766;-75
2023/12/20 09:39:38;;;;;;;1.70;1.60;;;8.90;57.60;;;;;;20620;6826;307076;-76
2023/12/20 09:42:04;;;;;;;2.20;2.00;;;9.00;56.70;;;;;;20593;6826;278028;-76
2023/12/20 09:44:29;;;;;;;3.67;1.60;;;9.10;56.10;;;;;;20816;6826;118372;-75
2023/12/20 09:46:56;;;;;;;3.40;2.10;;;8.90;56.70;;;;;;20621;6826;309012;-76
2023/12/20 09:49:22;;;;;;;2.93;1.80;;;8.90;56.60;;;;;;20621;6826;277796;-75
2023/12/20 09:51:47;;;;;;;1.90;1.52;;;9.10;55.90;;;;;;20616;6826;307155;-75
2023/12/20 09:54:12;;;;;;;3.90;1.50;;;9.30;55.20;;;;;;20819;6826;117088;-75
2023/12/20 09:56:38;;;;;;;2.43;1.60;;;9.20;55.60;;;;;;20547;6826;322048;-77
2023/12/20 09:59:04;;;;;;;3.22;1.50;;;9.40;54.90;;;;;;20615;6826;337515;-77
2023/12/20 10:01:30;;;;;;;3.97;1.45;;;9.40;54.90;;;;;;20623;6826;307141;-76
2023/12/20 10:03:55;;;;;;;3.55;1.55;;;9.60;54.70;;;;;;20606;6826;277924;-76
2023/12/20 10:06:22;;;;;;;2.47;1.80;;;10.00;53.10;;;;;;20578;6843;278948;-76
2023/12/20 10:08:47;;;;;;;3.53;1.20;;;10.00;53.10;;;;;;20773;6843;120315;-73
2023/12/20 10:11:13;;;;;;;1.43;1.07;;;9.90;54.40;;;;;;20570;6843;279830;-74
2023/12/20 10:13:42;;;;;;;3.17;1.37;;;9.80;53.80;;;;;;20573;6843;308986;-74
2023/12/20 10:16:09;;;;;;;2.42;1.60;;;9.90;52.70;;;;;;20550;6843;278612;-74
2023/12/20 10:18:35;;;;;;;3.30;1.77;;;10.10;51.20;;;;;;20570;6843;278232;-74
2023/12/20 10:21:03;;;;;;;2.20;1.40;;;10.10;51.20;;;;;;20565;6843;278993;-73
2023/12/20 10:23:28;;;;;;;3.60;1.10;;;10.20;51.40;;;;;;20784;6843;117474;-73
2023/12/20 10:25:59;;;;;;;1.03;0.90;;;10.00;51.90;;;;;;20768;6842;117712;-73
2023/12/20 10:28:27;;;;;;;3.30;1.63;;;9.70;53.30;;;;;;20569;6843;277887;-73
2023/12/20 10:30:50;;;;;;;2.60;0.93;;;9.70;52.60;;;;;;20772;6843;116985;-72
2023/12/20 10:33:26;;;;;;;2.00;1.27;;;9.60;53.40;;;;;;20738;6859;117660;-72
2023/12/20 10:35:52;;;;;;;1.43;1.13;;;9.50;54.00;;;;;;20711;6852;117709;-74
2023/12/20 10:38:17;;;;;;;4.37;1.08;;;9.40;54.70;;;;;;20806;6835;117180;-73
2023/12/20 10:40:43;;;;;;;2.17;1.23;;;9.30;55.10;;;;;;20595;6835;332057;-73
2023/12/20 10:43:10;;;;;;;1.60;1.10;;;9.40;53.80;;;;;;20593;6835;313747;-72
2023/12/20 10:45:35;;;;;;;3.87;1.40;;;9.60;52.10;;;;;;20810;6835;117631;-72
2023/12/20 10:48:01;;;;;;;1.37;1.20;;;9.60;52.50;;;;;;20788;6835;118158;-73
2023/12/20 10:50:27;;;;;;;3.10;1.30;;;9.40;53.00;;;;;;20798;6835;117249;-73
2023/12/20 10:52:55;;;;;;;1.50;1.23;;;9.10;53.70;;;;;;20846;6835;116078;-75
2023/12/20 10:55:18;;;;;;;1.97;1.23;;;9.00;54.20;;;;;;20843;6835;116525;-75
2023/12/20 10:57:43;;;;;;;1.80;1.10;;;8.90;54.50;;;;;;20649;6835;314802;-74
2023/12/20 11:00:09;;;;;;;3.50;1.50;;;9.10;54.10;;;;;;20596;6835;307213;-75
2023/12/20 11:02:37;;;;;;;2.47;1.20;;;9.80;52.60;;;;;;20576;6841;306837;-76
2023/12/20 11:05:06;;;;;;;1.37;1.27;;;9.80;51.90;;;;;;20795;6841;116978;-76
2023/12/20 11:07:34;;;;;;;1.20;1.00;;;9.80;52.30;;;;;;20785;6841;116925;-76
2023/12/20 11:10:10;;;;;;;1.53;0.80;;;9.70;52.80;;;;;;20756;6841;122443;-76
2023/12/20 11:12:40;;;;;;;3.80;1.20;;;9.50;54.00;;;;;;20805;6841;117276;-74
2023/12/20 11:15:05;;;;;;;1.42;1.12;;;9.50;54.00;;;;;;20602;6841;336674;-74
2023/12/20 11:17:32;;;;;;;1.00;0.73;;;9.50;51.50;;;;;;20818;6841;117009;-75
2023/12/20 11:19:58;;;;;;;0.90;0.80;;;9.50;52.00;;;;;;20790;6841;117728;-77
2023/12/20 11:22:27;;;;;;;2.23;1.00;;;9.40;52.40;;;;;;20850;6841;117121;-76
2023/12/20 11:24:52;;;;;;;1.83;1.00;;;9.20;53.00;;;;;;20837;6841;121016;-76
2023/12/20 11:27:17;;;;;;;2.78;1.67;;;9.10;53.50;;;;;;20657;6841;294021;-75
2023/12/20 11:29:44;;;;;;;1.63;1.30;;;9.20;52.20;;;;;;20842;6841;118563;-75
2023/12/20 11:32:30;;;;;;;1.43;1.00;;;9.30;52.90;;;;;;20802;6841;120608;-77
2023/12/20 11:34:55;;;;;;;2.27;1.50;;;9.30;52.90;;;;;;20876;6826;116551;-75
2023/12/20 11:37:22;;;;;;;1.75;1.08;;;9.20;53.40;;;;;;20636;6824;277086;-77
2023/12/20 11:39:57;;;;;;;2.57;1.00;;;9.40;51.40;;;;;;20834;6826;117277;-74
2023/12/20 11:42:23;;;;;;;1.97;1.30;;;9.50;51.80;;;;;;20557;6826;280420;-74
2023/12/20 11:44:48;;;;;;;2.13;1.17;;;9.60;49.80;;;;;;20825;6826;117023;-74
2023/12/20 11:47:19;;;;;;;1.58;0.88;;;9.70;50.20;;;;;;20809;6830;117032;-75
2023/12/20 11:49:43;;;;;;;1.98;1.17;;;9.50;50.80;;;;;;20607;6830;308098;-72
2023/12/20 11:52:08;;;;;;;2.25;1.33;;;9.50;48.40;;;;;;20594;6830;306941;-76
2023/12/20 11:54:34;;;;;;;2.22;1.10;;;9.80;47.30;;;;;;20620;6830;278458;-75
2023/12/20 11:56:59;;;;;;;1.02;0.73;;;10.00;45.70;;;;;;20827;6830;117016;-75
2023/12/20 11:59:25;;;;;;;2.67;1.03;;;9.80;47.60;;;;;;20823;6830;117062;-76
2023/12/20 12:01:51;;;;;;;1.60;1.20;;;9.60;48.90;;;;;;20612;6830;336959;-76
2023/12/20 12:04:17;;;;;;;1.40;0.97;;;9.60;48.80;;;;;;20648;6830;118256;-74
2023/12/20 12:06:42;;;;;;;2.33;1.20;;;9.60;48.70;;;;;;20808;6830;117412;-75
2023/12/20 12:09:08;;;;;;;4.18;1.25;;;9.40;49.20;;;;;;20606;6830;307865;-76
2023/12/20 12:11:34;;;;;;;2.73;1.10;;;9.50;47.80;;;;;;20824;6830;116922;-78
2023/12/20 12:13:59;;;;;;;3.10;1.40;;;9.50;48.60;;;;;;20594;6830;292081;-76
2023/12/20 12:16:25;;;;;;;2.15;1.45;;;9.60;46.90;;;;;;20606;6830;336644;-75
2023/12/20 12:18:57;;;;;;;3.93;1.00;;;9.70;47.30;;;;;;20824;6830;116990;-77
2023/12/20 12:21:23;;;;;;;2.80;1.30;;;9.70;45.80;;;;;;20608;6830;280799;-73
2023/12/20 12:23:50;;;;;;;2.70;1.00;;;9.90;45.70;;;;;;20575;6830;310132;-76
2023/12/20 12:26:15;;;;;;;1.50;1.40;;;9.90;45.70;;;;;;20785;6835;120546;-78
2023/12/20 12:28:44;;;;;;;2.60;1.10;;;9.70;46.60;;;;;;20588;6835;308412;-75
2023/12/20 12:31:06;;;;;;;3.10;1.30;;;9.70;45.80;;;;;;20763;6841;117010;-75
2023/12/20 12:33:32;;;;;;;2.17;1.33;;;9.60;46.70;;;;;;20584;6841;278885;-80
2023/12/20 12:35:58;;;;;;;2.70;1.33;;;9.60;46.60;;;;;;20524;6841;277707;-74
2023/12/20 12:38:23;;;;;;;2.33;1.33;;;9.70;46.20;;;;;;20554;6841;300203;-75
2023/12/20 12:40:49;;;;;;;2.78;1.40;;;9.80;46.20;;;;;;20780;6841;117117;-73
2023/12/20 12:43:14;;;;;;;3.05;1.15;;;9.60;46.90;;;;;;20767;6841;117141;-76
2023/12/20 12:45:40;;;;;;;1.73;1.25;;;9.30;48.00;;;;;;20795;6841;116928;-77
2023/12/20 12:48:06;;;;;;;2.37;1.17;;;9.00;49.00;;;;;;20775;6839;120563;-76
2023/12/20 12:50:31;;;;;;;3.85;1.30;;;8.70;49.70;;;;;;20562;6840;307108;-76
2023/12/20 12:52:57;;;;;;;4.72;1.27;;;8.80;49.00;;;;;;20798;6841;116860;-77
2023/12/20 12:55:23;;;;;;;1.87;1.00;;;8.80;49.00;;;;;;20792;6841;116958;-77
2023/12/20 12:57:49;;;;;;;2.93;1.70;;;8.70;49.60;;;;;;20581;6841;307695;-76
2023/12/20 13:00:16;;;;;;;4.23;1.67;;;8.80;48.10;;;;;;20560;6826;336928;-76
2023/12/20 13:02:43;;;;;;;3.15;1.55;;;9.10;48.10;;;;;;20653;6826;306388;-76
2023/12/20 13:05:08;;;;;;;11.07;1.85;;;9.30;47.10;;;;;;20671;6826;305004;-76
2023/12/20 13:07:34;;;;;;;3.77;1.57;;;9.50;46.80;;;;;;20669;6826;307284;-76
2023/12/20 13:10:00;;;;;;;4.27;1.27;;;9.70;46.20;;;;;;20819;6826;116927;-78
2023/12/20 13:12:25;;;;;;;3.60;1.50;;;9.50;47.10;;;;;;20619;6826;335924;-77